createdAt,value
2022-08-29T00:01:50.800Z,5.25
2022-08-29T00:04:18.677Z,5.47
2022-08-29T00:06:46.467Z,5.60
2022-08-29T00:09:14.271Z,5.47
2022-08-29T00:11:45.162Z,5.25
2022-08-29T00:14:20.898Z,5.00
2022-08-29T00:16:51.601Z,4.95
2022-08-29T00:19:19.447Z,4.95
2022-08-29T00:21:47.278Z,5.85
2022-08-29T00:24:15.124Z,5.35
2022-08-29T00:26:42.853Z,6.20
2022-08-29T00:29:10.669Z,5.45
2022-08-29T00:31:38.560Z,5.85
2022-08-29T00:34:06.888Z,5.93
2022-08-29T00:36:34.761Z,5.65
2022-08-29T00:39:02.801Z,5.60
2022-08-29T00:41:30.627Z,5.15
2022-08-29T00:43:58.433Z,5.65
2022-08-29T00:46:44.615Z,5.65
2022-08-29T00:49:32.674Z,5.80
2022-08-29T00:52:04.707Z,5.25
2022-08-29T00:54:32.643Z,5.50
2022-08-29T00:57:00.650Z,5.22
2022-08-29T00:59:34.186Z,5.65
2022-08-29T01:02:02.088Z,6.22
2022-08-29T01:04:30.138Z,5.47
2022-08-29T01:06:58.107Z,5.60
2022-08-29T01:09:26.067Z,6.10
2022-08-29T01:12:12.891Z,6.25
2022-08-29T01:14:42.060Z,5.55
2022-08-29T01:17:10.452Z,5.72
2022-08-29T01:20:11.079Z,6.43
2022-08-29T01:22:59.918Z,5.47
2022-08-29T01:25:30.131Z,5.95
2022-08-29T01:28:05.438Z,5.78
2022-08-29T01:30:33.326Z,5.53
2022-08-29T01:33:02.037Z,5.97
2022-08-29T01:35:29.899Z,6.10
2022-08-29T01:37:57.672Z,5.75
2022-08-29T01:40:30.312Z,5.90
2022-08-29T01:42:58.723Z,5.57
2022-08-29T01:45:26.571Z,6.35
2022-08-29T01:47:54.430Z,5.60
2022-08-29T01:50:22.622Z,5.90
2022-08-29T01:52:50.676Z,5.72
2022-08-29T01:55:18.449Z,6.00
2022-08-29T01:57:46.909Z,5.68
2022-08-29T02:00:14.890Z,5.60
2022-08-29T02:02:44.435Z,6.07
2022-08-29T02:05:12.406Z,5.45
2022-08-29T02:07:40.166Z,5.85
2022-08-29T02:10:08.300Z,5.93
2022-08-29T02:12:36.693Z,6.15
2022-08-29T02:15:05.106Z,5.57
2022-08-29T02:17:32.897Z,5.32
2022-08-29T02:20:00.656Z,5.25
2022-08-29T02:22:28.481Z,5.80
2022-08-29T02:24:59.753Z,5.50
2022-08-29T02:27:27.562Z,5.65
2022-08-29T02:29:56.170Z,5.50
2022-08-29T02:32:23.930Z,5.72
2022-08-29T02:34:53.176Z,5.68
2022-08-29T02:37:21.001Z,5.75
2022-08-29T02:39:48.764Z,5.72
2022-08-29T02:42:16.573Z,5.55
2022-08-29T02:44:44.324Z,6.28
2022-08-29T02:47:12.090Z,5.62
2022-08-29T02:49:40.820Z,5.55
2022-08-29T02:52:09.663Z,5.90
2022-08-29T02:54:37.433Z,6.00
2022-08-29T02:57:06.078Z,5.97
2022-08-29T02:59:33.836Z,5.87
2022-08-29T03:02:01.796Z,6.12
2022-08-29T03:04:29.649Z,6.12
2022-08-29T03:06:57.410Z,6.12
2022-08-29T03:09:25.235Z,5.78
2022-08-29T03:11:56.212Z,5.62
2022-08-29T03:14:25.145Z,6.37
2022-08-29T03:16:53.047Z,6.95
2022-08-29T03:19:20.832Z,5.50
2022-08-29T03:21:48.841Z,5.72
2022-08-29T03:24:16.743Z,6.05
2022-08-29T03:26:56.233Z,6.20
2022-08-29T03:29:25.121Z,6.12
2022-08-29T03:31:52.902Z,6.12
2022-08-29T03:34:20.722Z,6.53
2022-08-29T03:36:48.522Z,6.35
2022-08-29T03:39:16.313Z,5.72
2022-08-29T03:41:44.242Z,6.50
2022-08-29T03:44:12.023Z,5.75
2022-08-29T03:46:40.651Z,6.15
2022-08-29T03:49:09.077Z,6.62
2022-08-29T03:51:38.047Z,6.07
2022-08-29T03:54:06.653Z,6.35
2022-08-29T03:56:34.439Z,6.50
2022-08-29T03:59:02.162Z,6.50
2022-08-29T04:01:30.824Z,5.90
2022-08-29T04:03:58.695Z,6.78
2022-08-29T04:06:27.278Z,5.68
2022-08-29T04:08:55.874Z,6.55
2022-08-29T04:11:25.226Z,5.68
2022-08-29T04:13:54.139Z,6.47
2022-08-29T04:16:24.648Z,6.15
2022-08-29T04:18:58.253Z,6.87
2022-08-29T04:21:27.376Z,6.30
2022-08-29T04:23:55.324Z,6.03
2022-08-29T04:26:38.468Z,6.40
2022-08-29T04:29:08.057Z,6.97
2022-08-29T04:31:36.095Z,6.72
2022-08-29T04:34:05.217Z,6.62
2022-08-29T04:36:34.647Z,6.00
2022-08-29T04:39:02.435Z,6.93
2022-08-29T04:41:32.472Z,6.95
2022-08-29T04:44:00.853Z,6.68
2022-08-29T04:46:28.727Z,6.85
2022-08-29T04:49:00.565Z,7.10
2022-08-29T04:51:31.092Z,6.72
2022-08-29T04:53:58.855Z,7.72
2022-08-29T04:56:26.608Z,8.40
2022-08-29T04:58:54.377Z,8.55
2022-08-29T05:01:23.599Z,8.27
2022-08-29T05:03:53.120Z,8.43
2022-08-29T05:06:22.433Z,7.35
2022-08-29T05:08:59.420Z,8.93
2022-08-29T05:11:29.658Z,7.87
2022-08-29T05:13:57.517Z,8.60
2022-08-29T05:16:25.374Z,8.68
2022-08-29T05:18:53.549Z,8.27
2022-08-29T05:21:37.860Z,8.48
2022-08-29T05:24:15.080Z,8.07
2022-08-29T05:26:44.854Z,7.87
2022-08-29T05:29:13.139Z,8.13
2022-08-29T05:31:42.359Z,7.78
2022-08-29T05:34:32.104Z,8.60
2022-08-29T05:37:00.718Z,9.88
2022-08-29T05:39:28.543Z,9.40
2022-08-29T05:41:58.947Z,10.25
2022-08-29T05:44:30.521Z,10.20
2022-08-29T05:47:02.032Z,9.80
2022-08-29T05:49:29.895Z,10.10
2022-08-29T05:51:57.881Z,10.25
2022-08-29T05:54:30.538Z,9.05
2022-08-29T05:56:58.371Z,8.82
2022-08-29T05:59:27.163Z,9.25
2022-08-29T06:01:55.050Z,8.55
2022-08-29T06:04:22.938Z,7.78
2022-08-29T06:06:52.782Z,8.60
2022-08-29T06:09:20.643Z,9.15
2022-08-29T06:11:49.797Z,8.70
2022-08-29T06:14:21.019Z,8.48
2022-08-29T06:16:53.517Z,8.10
2022-08-29T06:19:21.346Z,7.40
2022-08-29T06:21:49.550Z,6.50
2022-08-29T06:24:19.065Z,7.12
2022-08-29T06:26:47.064Z,7.15
2022-08-29T06:29:16.017Z,7.18
2022-08-29T06:31:43.857Z,6.87
2022-08-29T06:34:12.011Z,6.80
2022-08-29T06:36:45.833Z,6.85
2022-08-29T06:39:20.216Z,7.20
2022-08-29T06:41:48.075Z,6.90
2022-08-29T06:44:16.308Z,7.68
2022-08-29T06:46:45.360Z,7.62
2022-08-29T06:49:14.593Z,8.50
2022-08-29T06:51:44.231Z,7.18
2022-08-29T06:54:17.703Z,7.15
2022-08-29T06:56:45.769Z,7.47
2022-08-29T06:59:13.846Z,6.87
2022-08-29T07:01:43.352Z,7.45
2022-08-29T07:04:14.392Z,6.62
2022-08-29T07:06:43.079Z,7.03
2022-08-29T07:09:10.956Z,7.35
2022-08-29T07:11:41.196Z,6.75
2022-08-29T07:14:09.489Z,6.87
2022-08-29T07:16:37.468Z,6.20
2022-08-29T07:19:06.174Z,6.82
2022-08-29T07:21:33.976Z,6.68
2022-08-29T07:24:02.059Z,7.18
2022-08-29T07:26:31.868Z,6.85
2022-08-29T07:29:03.042Z,6.62
2022-08-29T07:31:31.580Z,6.93
2022-08-29T07:34:02.690Z,6.75
2022-08-29T07:36:34.229Z,7.00
2022-08-29T07:39:02.688Z,6.00
2022-08-29T07:41:31.412Z,6.00
2022-08-29T07:43:59.188Z,5.62
2022-08-29T07:46:27.996Z,5.37
2022-08-29T07:48:56.062Z,6.05
2022-08-29T07:51:24.712Z,5.65
2022-08-29T07:53:52.754Z,5.55
2022-08-29T07:56:26.332Z,6.45
2022-08-29T07:58:54.416Z,4.82
2022-08-29T08:01:22.633Z,5.22
2022-08-29T08:03:51.478Z,5.05
2022-08-29T08:06:22.507Z,5.37
2022-08-29T08:08:50.707Z,5.43
2022-08-29T08:11:19.023Z,5.25
2022-08-29T08:13:46.998Z,5.10
2022-08-29T08:16:19.925Z,5.40
2022-08-29T08:18:47.736Z,5.30
2022-08-29T08:21:15.506Z,5.00
2022-08-29T08:23:43.415Z,4.90
2022-08-29T08:26:11.703Z,4.65
2022-08-29T08:28:39.558Z,4.55
2022-08-29T08:31:08.503Z,4.45
2022-08-29T08:33:39.894Z,4.53
2022-08-29T08:36:37.613Z,4.78
2022-08-29T08:39:08.721Z,4.30
2022-08-29T08:41:52.269Z,5.20
2022-08-29T08:44:22.717Z,4.68
2022-08-29T08:46:52.370Z,4.68
2022-08-29T08:49:35.261Z,5.07
2022-08-29T08:52:14.954Z,4.87
2022-08-29T08:54:56.673Z,4.78
2022-08-29T08:57:24.567Z,4.40
2022-08-29T08:59:57.129Z,4.32
2022-08-29T09:02:36.266Z,4.47
2022-08-29T09:05:44.041Z,4.37
2022-08-29T09:08:45.708Z,4.40
2022-08-29T09:11:36.406Z,3.85
2022-08-29T09:14:10.111Z,4.75
2022-08-29T09:16:47.621Z,4.12
2022-08-29T09:19:17.321Z,4.22
2022-08-29T09:21:49.624Z,4.22
2022-08-29T09:24:24.812Z,4.22
2022-08-29T09:26:52.599Z,3.90
2022-08-29T09:29:22.136Z,4.40
2022-08-29T09:32:11.461Z,4.12
2022-08-29T09:35:07.413Z,4.18
2022-08-29T09:37:35.081Z,3.97
2022-08-29T09:40:16.770Z,4.32
2022-08-29T09:42:51.902Z,4.40
2022-08-29T09:45:25.036Z,3.90
2022-08-29T09:48:18.738Z,4.50
2022-08-29T09:50:46.583Z,4.70
2022-08-29T09:53:25.327Z,4.15
2022-08-29T09:55:53.770Z,3.83
2022-08-29T09:58:21.420Z,4.18
2022-08-29T10:01:26.207Z,4.03
2022-08-29T10:03:59.786Z,4.60
2022-08-29T10:06:34.357Z,4.10
2022-08-29T10:09:06.638Z,4.45
2022-08-29T10:11:52.939Z,4.43
2022-08-29T10:14:38.972Z,4.10
2022-08-29T10:17:34.309Z,4.12
2022-08-29T10:20:02.382Z,4.22
2022-08-29T10:22:50.537Z,4.05
2022-08-29T10:25:22.021Z,4.20
2022-08-29T10:27:56.885Z,3.80
2022-08-29T10:30:27.447Z,4.25
2022-08-29T10:33:05.779Z,4.07
2022-08-29T10:36:08.057Z,4.15
2022-08-29T10:38:48.220Z,4.07
2022-08-29T10:41:50.761Z,3.85
2022-08-29T10:44:33.424Z,4.03
2022-08-29T10:47:54.812Z,4.10
2022-08-29T10:50:44.647Z,4.12
2022-08-29T10:53:47.284Z,3.58
2022-08-29T10:56:28.330Z,3.97
2022-08-29T10:59:21.699Z,4.05
2022-08-29T11:02:00.554Z,4.25
2022-08-29T11:04:40.801Z,4.22
2022-08-29T11:07:23.096Z,4.37
2022-08-29T11:10:42.876Z,3.97
2022-08-29T11:13:15.387Z,3.67
2022-08-29T11:16:07.390Z,3.40
2022-08-29T11:18:40.386Z,3.85
2022-08-29T11:21:58.059Z,3.70
2022-08-29T11:24:35.136Z,3.90
2022-08-29T11:27:16.820Z,3.03
2022-08-29T11:30:09.618Z,3.45
2022-08-29T11:32:50.931Z,3.50
2022-08-29T11:35:24.937Z,3.85
2022-08-29T11:38:15.276Z,3.72
2022-08-29T11:43:57.050Z,3.62
2022-08-29T11:46:41.008Z,3.78
2022-08-29T11:49:41.093Z,3.87
2022-08-29T11:52:12.266Z,4.05
2022-08-29T11:54:43.135Z,3.67
2022-08-29T11:57:17.614Z,3.78
2022-08-29T12:00:10.658Z,3.55
2022-08-29T12:02:40.313Z,3.67
2022-08-29T12:05:28.258Z,3.62
2022-08-29T12:08:03.049Z,3.70
2022-08-29T12:10:53.066Z,3.85
2022-08-29T12:13:54.380Z,3.65
2022-08-29T12:16:50.220Z,3.75
2022-08-29T12:20:15.415Z,3.50
2022-08-29T12:23:18.140Z,3.70
2022-08-29T12:26:21.575Z,3.75
2022-08-29T12:28:59.534Z,3.83
2022-08-29T12:31:36.380Z,3.00
2022-08-29T12:34:19.951Z,3.28
2022-08-29T12:36:56.512Z,3.78
2022-08-29T12:39:34.837Z,3.40
2022-08-29T12:42:21.764Z,4.40
2022-08-29T12:45:12.157Z,3.42
2022-08-29T12:48:06.190Z,3.33
2022-08-29T12:51:01.846Z,3.95
2022-08-29T12:53:32.205Z,3.70
2022-08-29T12:56:11.957Z,3.78
2022-08-29T12:58:48.054Z,3.70
2022-08-29T13:01:31.950Z,3.60
2022-08-29T13:04:13.296Z,3.40
2022-08-29T13:07:02.349Z,3.90
2022-08-29T13:09:38.083Z,3.67
2022-08-29T13:12:19.135Z,3.65
2022-08-29T13:14:52.731Z,3.97
2022-08-29T13:17:22.707Z,3.03
2022-08-29T13:20:41.563Z,3.50
2022-08-29T13:23:27.525Z,3.55
2022-08-29T13:26:03.145Z,2.97
2022-08-29T13:28:52.748Z,3.40
2022-08-29T13:31:22.350Z,3.17
2022-08-29T13:33:50.138Z,3.40
2022-08-29T13:36:31.328Z,2.97
2022-08-29T13:39:18.254Z,3.53
2022-08-29T13:41:47.071Z,3.10
2022-08-29T13:44:23.649Z,3.33
2022-08-29T13:46:52.675Z,3.47
2022-08-29T13:49:25.203Z,3.08
2022-08-29T13:51:53.086Z,3.37
2022-08-29T13:54:20.870Z,3.40
2022-08-29T13:56:50.507Z,3.10
2022-08-29T13:59:18.274Z,3.17
2022-08-29T14:04:38.598Z,2.83
2022-08-29T14:07:07.555Z,2.78
2022-08-29T14:09:40.640Z,2.70
2022-08-29T14:12:08.760Z,3.12
2022-08-29T14:14:36.627Z,2.83
2022-08-29T14:17:04.482Z,2.90
2022-08-29T14:19:32.322Z,2.62
2022-08-29T14:22:03.290Z,3.10
2022-08-29T14:24:32.020Z,3.12
2022-08-29T14:27:01.682Z,3.50
2022-08-29T14:29:31.070Z,3.10
2022-08-29T14:31:59.643Z,2.80
2022-08-29T14:34:32.561Z,3.10
2022-08-29T14:37:01.700Z,2.60
2022-08-29T14:39:29.906Z,3.25
2022-08-29T14:41:57.806Z,3.12
2022-08-29T14:44:25.610Z,3.15
2022-08-29T14:46:53.743Z,3.20
2022-08-29T14:49:21.583Z,2.58
2022-08-29T14:51:49.903Z,2.55
2022-08-29T14:54:19.047Z,3.00
2022-08-29T14:56:49.575Z,3.20
2022-08-29T14:59:19.304Z,3.35
2022-08-29T15:01:52.909Z,3.30
2022-08-29T15:04:35.623Z,3.08
2022-08-29T15:07:09.172Z,3.20
2022-08-29T15:09:37.105Z,3.40
2022-08-29T15:12:05.420Z,3.10
2022-08-29T15:14:35.389Z,2.83
2022-08-29T15:17:04.066Z,3.08
2022-08-29T15:20:17.673Z,3.05
2022-08-29T15:22:20.014Z,2.92
2022-08-29T15:24:47.878Z,2.90
2022-08-29T15:27:15.669Z,2.80
2022-08-29T15:29:43.485Z,3.17
2022-08-29T15:32:12.908Z,3.28
2022-08-29T15:34:41.575Z,3.05
2022-08-29T15:37:10.174Z,3.05
2022-08-29T15:39:38.103Z,3.28
2022-08-29T15:42:09.568Z,3.72
2022-08-29T15:44:37.338Z,3.42
2022-08-29T15:47:05.231Z,2.83
2022-08-29T15:49:38.292Z,3.37
2022-08-29T15:52:06.197Z,3.15
2022-08-29T15:54:34.016Z,3.80
2022-08-29T15:57:01.883Z,3.08
2022-08-29T15:59:54.318Z,3.12
2022-08-29T16:02:18.497Z,3.10
2022-08-29T16:04:48.709Z,2.90
2022-08-29T16:07:16.936Z,3.25
2022-08-29T16:09:45.530Z,3.33
2022-08-29T16:12:13.580Z,2.80
2022-08-29T16:17:30.877Z,4.20
2022-08-29T16:19:59.373Z,3.33
2022-08-29T16:22:28.918Z,3.10
2022-08-29T16:24:56.789Z,3.53
2022-08-29T16:27:25.677Z,2.90
2022-08-29T16:29:53.997Z,2.90
2022-08-29T16:32:21.944Z,3.30
2022-08-29T16:34:49.891Z,2.70
2022-08-29T16:37:17.703Z,3.20
2022-08-29T16:39:45.528Z,3.47
2022-08-29T16:42:13.459Z,3.10
2022-08-29T16:44:41.584Z,3.00
2022-08-29T16:47:09.410Z,3.28
2022-08-29T16:49:37.215Z,3.22
2022-08-29T16:52:05.737Z,3.00
2022-08-29T16:54:33.665Z,3.00
2022-08-29T16:57:01.590Z,3.10
2022-08-29T16:59:29.492Z,3.33
2022-08-29T17:01:57.743Z,3.17
2022-08-29T17:04:27.368Z,3.55
2022-08-29T17:06:55.338Z,3.25
2022-08-29T17:09:24.335Z,2.75
2022-08-29T17:11:52.477Z,3.10
2022-08-29T17:14:20.575Z,3.40
2022-08-29T17:16:49.140Z,3.15
2022-08-29T17:19:17.043Z,3.33
2022-08-29T17:21:44.940Z,3.12
2022-08-29T17:24:13.368Z,3.85
2022-08-29T17:26:42.544Z,3.00
2022-08-29T17:29:10.475Z,3.40
2022-08-29T17:31:39.213Z,2.87
2022-08-29T17:34:07.825Z,3.28
2022-08-29T17:36:37.656Z,3.28
2022-08-29T17:39:06.495Z,3.42
2022-08-29T17:41:36.901Z,3.12
2022-08-29T17:44:06.421Z,3.10
2022-08-29T17:46:34.353Z,3.47
2022-08-29T17:49:06.961Z,3.53
2022-08-29T17:51:36.094Z,3.78
2022-08-29T17:54:05.351Z,3.17
2022-08-29T17:56:44.422Z,3.40
2022-08-29T17:59:13.592Z,3.80
2022-08-29T18:01:41.594Z,3.10
2022-08-29T18:04:09.598Z,3.30
2022-08-29T18:06:37.598Z,3.60
2022-08-29T18:09:06.116Z,3.40
2022-08-29T18:11:34.209Z,3.25
2022-08-29T18:14:02.363Z,3.60
2022-08-29T18:16:30.357Z,3.60
2022-08-29T18:18:58.296Z,3.80
2022-08-29T18:21:27.147Z,3.40
2022-08-29T18:23:55.016Z,3.67
2022-08-29T18:26:22.985Z,3.55
2022-08-29T18:28:51.316Z,3.67
2022-08-29T18:31:19.797Z,3.53
2022-08-29T18:34:04.173Z,3.47
2022-08-29T18:36:33.497Z,3.55
2022-08-29T18:39:02.210Z,3.80
2022-08-29T18:41:30.116Z,3.92
2022-08-29T18:43:58.313Z,3.83
2022-08-29T18:46:27.159Z,3.75
2022-08-29T18:48:55.108Z,3.72
2022-08-29T18:51:22.915Z,4.00
2022-08-29T18:53:50.868Z,4.15
2022-08-29T18:56:18.700Z,4.10
2022-08-29T18:58:46.602Z,4.53
2022-08-29T19:01:15.506Z,4.00
2022-08-29T19:03:55.136Z,4.28
2022-08-29T19:06:26.913Z,4.90
2022-08-29T19:08:55.602Z,4.43
2022-08-29T19:11:23.574Z,4.43
2022-08-29T19:15:00.890Z,4.35
2022-08-29T19:16:40.817Z,5.28
2022-08-29T19:19:13.204Z,5.05
2022-08-29T19:21:43.575Z,4.90
2022-08-29T19:24:11.525Z,5.00
2022-08-29T19:26:41.287Z,5.05
2022-08-29T19:29:15.257Z,5.10
2022-08-29T19:31:43.643Z,5.07
2022-08-29T19:34:12.505Z,5.10
2022-08-29T19:36:41.178Z,5.28
2022-08-29T19:39:09.045Z,5.47
2022-08-29T19:41:37.447Z,5.37
2022-08-29T19:44:05.433Z,5.22
2022-08-29T19:46:33.960Z,5.50
2022-08-29T19:49:02.722Z,5.30
2022-08-29T19:51:33.947Z,5.43
2022-08-29T19:54:04.665Z,5.20
2022-08-29T19:56:34.512Z,5.82
2022-08-29T19:59:02.574Z,5.32
2022-08-29T20:01:30.550Z,4.75
2022-08-29T20:03:58.542Z,5.55
2022-08-29T20:06:27.121Z,5.50
2022-08-29T20:08:54.970Z,5.30
2022-08-29T20:11:25.894Z,4.55
2022-08-29T20:13:54.622Z,5.55
2022-08-29T20:16:23.914Z,5.15
2022-08-29T20:18:52.152Z,5.00
2022-08-29T20:21:20.393Z,5.45
2022-08-29T20:23:52.851Z,5.25
2022-08-29T20:26:30.051Z,5.30
2022-08-29T20:28:59.697Z,5.78
2022-08-29T20:31:29.510Z,5.07
2022-08-29T20:34:00.712Z,5.43
2022-08-29T20:36:49.405Z,5.93
2022-08-29T20:39:24.264Z,5.75
2022-08-29T20:41:56.583Z,6.00
2022-08-29T20:44:33.774Z,5.60
2022-08-29T20:47:06.889Z,5.25
2022-08-29T20:49:36.176Z,5.53
2022-08-29T20:52:06.042Z,6.20
2022-08-29T20:54:39.050Z,5.75
2022-08-29T20:57:29.532Z,6.00
2022-08-29T20:59:58.082Z,5.80
2022-08-29T21:02:50.187Z,5.65
2022-08-29T21:05:37.898Z,5.12
2022-08-29T21:08:09.563Z,5.28
2022-08-29T21:10:54.560Z,5.93
2022-08-29T21:13:29.948Z,5.72
2022-08-29T21:16:01.265Z,5.57
2022-08-29T21:18:35.057Z,5.60
2022-08-29T21:21:14.720Z,5.80
2022-08-29T21:23:50.357Z,5.47
2022-08-29T21:26:34.832Z,5.60
2022-08-29T21:29:03.286Z,5.07
2022-08-29T21:31:35.182Z,5.62
2022-08-29T21:34:07.284Z,5.35
2022-08-29T21:36:45.157Z,5.40
2022-08-29T21:39:28.241Z,5.50
2022-08-29T21:42:02.474Z,6.00
2022-08-29T21:44:37.523Z,5.57
2022-08-29T21:47:18.135Z,6.15
2022-08-29T21:50:03.540Z,5.60
2022-08-29T21:52:32.257Z,5.12
2022-08-29T21:55:00.704Z,5.62
2022-08-29T21:57:56.868Z,5.20
2022-08-29T22:00:33.952Z,5.15
2022-08-29T22:03:06.172Z,5.20
2022-08-29T22:05:40.707Z,5.32
2022-08-29T22:08:16.673Z,5.53
2022-08-29T22:10:45.453Z,5.43
2022-08-29T22:13:16.772Z,5.70
2022-08-29T22:16:12.205Z,6.05
2022-08-29T22:18:43.260Z,5.90
2022-08-29T22:21:15.141Z,5.93
2022-08-29T22:23:45.730Z,6.37
2022-08-29T22:26:14.626Z,6.32
2022-08-29T22:28:43.502Z,6.35
2022-08-29T22:31:11.368Z,6.30
2022-08-29T22:34:02.442Z,6.12
2022-08-29T22:36:34.141Z,6.35
2022-08-29T22:39:02.085Z,6.05
2022-08-29T22:41:30.198Z,6.78
2022-08-29T22:44:42.480Z,6.45
2022-08-29T22:46:50.846Z,6.65
2022-08-29T22:49:20.273Z,6.28
2022-08-29T22:51:49.390Z,6.45
2022-08-29T22:54:35.605Z,6.10
2022-08-29T22:57:08.255Z,5.75
2022-08-29T22:59:36.248Z,5.40
2022-08-29T23:02:07.532Z,5.43
2022-08-29T23:04:35.583Z,5.82
2022-08-29T23:07:06.639Z,5.18
2022-08-29T23:09:35.595Z,5.47
2022-08-29T23:12:09.267Z,6.47
2022-08-29T23:14:38.475Z,5.30
2022-08-29T23:17:06.986Z,5.00
2022-08-29T23:19:36.473Z,5.60
2022-08-29T23:22:07.181Z,6.45
2022-08-29T23:24:36.894Z,5.82
2022-08-29T23:27:05.791Z,5.55
2022-08-29T23:29:42.069Z,5.87
2022-08-29T23:32:10.819Z,6.18
2022-08-29T23:34:40.872Z,5.62
2022-08-29T23:37:09.572Z,5.25
2022-08-29T23:39:41.115Z,5.65
2022-08-29T23:42:09.168Z,5.62
2022-08-29T23:44:39.731Z,5.15
2022-08-29T23:47:09.553Z,5.43
2022-08-29T23:49:40.484Z,5.65
2022-08-29T23:52:09.028Z,4.97
2022-08-29T23:54:37.956Z,5.05
2022-08-29T23:57:06.890Z,5.15
2022-08-29T23:59:54.732Z,5.25
